createdAt,value
2023-06-10T00:00:07.344Z,2.65
2023-06-10T00:02:40.643Z,2.53
2023-06-10T00:05:09.969Z,2.40
2023-06-10T00:07:42.305Z,2.37
2023-06-10T00:10:11.620Z,2.65
2023-06-10T00:12:39.732Z,3.12
2023-06-10T00:15:08.581Z,2.90
2023-06-10T00:17:40.259Z,2.70
2023-06-10T00:20:14.552Z,2.75
2023-06-10T00:22:46.810Z,2.35
2023-06-10T00:25:14.753Z,2.70
2023-06-10T00:27:42.577Z,2.60
2023-06-10T00:30:10.771Z,2.63
2023-06-10T00:32:39.087Z,2.90
2023-06-10T00:35:08.259Z,2.35
2023-06-10T00:37:37.106Z,2.90
2023-06-10T00:40:05.807Z,2.33
2023-06-10T00:42:33.709Z,2.70
2023-06-10T00:45:01.375Z,2.65
2023-06-10T00:47:29.632Z,2.50
2023-06-10T00:49:57.545Z,2.30
2023-06-10T00:52:27.925Z,2.50
2023-06-10T00:54:55.759Z,2.13
2023-06-10T00:57:23.529Z,2.40
2023-06-10T00:59:51.095Z,2.28
2023-06-10T01:02:18.840Z,2.50
2023-06-10T01:04:49.807Z,2.47
2023-06-10T01:07:20.914Z,2.20
2023-06-10T01:10:06.688Z,2.50
2023-06-10T01:12:41.408Z,2.45
2023-06-10T01:15:11.345Z,2.47
2023-06-10T01:18:00.804Z,2.90
2023-06-10T01:20:33.352Z,2.50
2023-06-10T01:23:02.095Z,2.40
2023-06-10T01:25:33.691Z,2.97
2023-06-10T01:28:07.673Z,3.08
2023-06-10T01:30:48.565Z,2.30
2023-06-10T01:33:19.209Z,2.70
2023-06-10T01:35:48.825Z,2.67
2023-06-10T01:38:16.975Z,2.60
2023-06-10T01:40:44.789Z,2.80
2023-06-10T01:43:12.759Z,2.95
2023-06-10T01:45:40.770Z,2.57
2023-06-10T01:48:09.017Z,2.72
2023-06-10T01:50:36.813Z,2.72
2023-06-10T01:53:06.684Z,2.75
2023-06-10T01:55:34.178Z,2.58
2023-06-10T01:58:01.960Z,2.93
2023-06-10T02:00:29.505Z,3.00
2023-06-10T02:02:57.482Z,2.90
2023-06-10T02:05:26.004Z,2.62
2023-06-10T02:07:53.602Z,2.60
2023-06-10T02:10:23.385Z,2.33
2023-06-10T02:12:51.106Z,2.78
2023-06-10T02:15:18.643Z,2.80
2023-06-10T02:17:50.158Z,3.53
2023-06-10T02:20:17.735Z,2.90
2023-06-10T02:22:45.287Z,2.77
2023-06-10T02:25:13.411Z,2.75
2023-06-10T02:27:40.879Z,3.03
2023-06-10T02:30:11.321Z,3.05
2023-06-10T02:32:39.458Z,3.00
2023-06-10T02:35:07.630Z,3.47
2023-06-10T02:37:35.397Z,4.25
2023-06-10T02:40:04.622Z,3.90
2023-06-10T02:42:33.108Z,3.62
2023-06-10T02:45:01.984Z,4.03
2023-06-10T02:47:31.376Z,4.80
2023-06-10T02:49:59.317Z,5.35
2023-06-10T02:52:26.944Z,5.62
2023-06-10T02:54:55.060Z,6.22
2023-06-10T02:57:22.730Z,6.28
2023-06-10T02:59:50.264Z,6.10
2023-06-10T03:02:18.085Z,6.40
2023-06-10T03:04:46.255Z,6.00
2023-06-10T03:07:15.037Z,6.10
2023-06-10T03:09:45.516Z,6.30
2023-06-10T03:12:13.935Z,5.93
2023-06-10T03:14:42.573Z,6.07
2023-06-10T03:17:11.029Z,6.18
2023-06-10T03:19:39.146Z,5.37
2023-06-10T03:22:14.213Z,5.32
2023-06-10T03:24:42.566Z,5.73
2023-06-10T03:27:14.415Z,6.00
2023-06-10T03:29:42.856Z,5.50
2023-06-10T03:32:11.670Z,5.62
2023-06-10T03:34:39.804Z,5.50
2023-06-10T03:37:07.914Z,5.53
2023-06-10T03:39:35.672Z,5.32
2023-06-10T03:42:03.456Z,4.75
2023-06-10T03:44:32.528Z,4.65
2023-06-10T03:47:01.091Z,4.80
2023-06-10T03:49:30.553Z,4.80
2023-06-10T03:51:58.911Z,4.97
2023-06-10T03:54:26.831Z,4.97
2023-06-10T03:56:54.418Z,4.80
2023-06-10T03:59:22.262Z,4.72
2023-06-10T04:01:49.789Z,4.20
2023-06-10T04:04:18.190Z,4.87
2023-06-10T04:06:46.143Z,5.28
2023-06-10T04:09:13.940Z,5.25
2023-06-10T04:11:41.747Z,4.57
2023-06-10T04:14:09.798Z,4.87
2023-06-10T04:16:37.699Z,5.15
2023-06-10T04:19:06.808Z,4.57
2023-06-10T04:21:34.483Z,4.82
2023-06-10T04:24:02.286Z,4.62
2023-06-10T04:26:30.359Z,4.97
2023-06-10T04:28:57.841Z,4.57
2023-06-10T04:31:25.316Z,4.20
2023-06-10T04:33:53.112Z,4.20
2023-06-10T04:36:21.111Z,3.78
2023-06-10T04:38:48.688Z,4.10
2023-06-10T04:41:16.528Z,3.37
2023-06-10T04:43:44.040Z,3.33
2023-06-10T04:46:12.153Z,3.08
2023-06-10T04:48:40.132Z,3.35
2023-06-10T04:51:07.679Z,3.23
2023-06-10T04:53:36.029Z,2.40
2023-06-10T04:56:03.990Z,2.65
2023-06-10T04:58:31.481Z,2.60
2023-06-10T05:00:59.072Z,2.17
2023-06-10T05:03:27.777Z,2.53
2023-06-10T05:05:55.604Z,1.85
2023-06-10T05:08:23.157Z,2.00
2023-06-10T05:10:51.168Z,2.05
2023-06-10T05:13:19.013Z,2.20
2023-06-10T05:15:47.576Z,2.70
2023-06-10T05:18:15.358Z,2.40
2023-06-10T05:20:42.946Z,2.37
2023-06-10T05:23:10.501Z,2.20
2023-06-10T05:25:38.348Z,2.20
2023-06-10T05:28:05.777Z,2.33
2023-06-10T05:30:33.342Z,2.58
2023-06-10T05:33:01.197Z,2.78
2023-06-10T05:35:28.692Z,2.47
2023-06-10T05:37:56.185Z,2.75
2023-06-10T05:40:24.417Z,2.73
2023-06-10T05:42:51.921Z,2.60
2023-06-10T05:45:19.532Z,2.60
2023-06-10T05:47:47.390Z,2.45
2023-06-10T05:50:15.019Z,2.30
2023-06-10T05:52:42.587Z,2.43
2023-06-10T05:55:11.291Z,2.35
2023-06-10T05:57:39.277Z,2.25
2023-06-10T06:00:07.530Z,2.55
2023-06-10T06:02:40.040Z,2.15
2023-06-10T06:05:08.638Z,2.10
2023-06-10T06:07:36.646Z,2.40
2023-06-10T06:10:04.503Z,2.55
2023-06-10T06:12:32.483Z,2.58
2023-06-10T06:15:00.155Z,2.12
2023-06-10T06:17:27.763Z,2.47
2023-06-10T06:19:55.545Z,1.87
2023-06-10T06:22:23.383Z,2.50
2023-06-10T06:24:51.084Z,2.15
2023-06-10T06:27:18.986Z,2.33
2023-06-10T06:29:49.124Z,2.20
2023-06-10T06:32:17.234Z,2.42
2023-06-10T06:34:44.985Z,2.28
2023-06-10T06:37:12.567Z,2.28
2023-06-10T06:39:41.479Z,2.60
2023-06-10T06:42:09.454Z,2.23
2023-06-10T06:44:38.547Z,2.40
2023-06-10T06:47:06.448Z,2.30
2023-06-10T06:49:34.290Z,2.47
2023-06-10T06:52:01.844Z,2.10
2023-06-10T06:54:30.182Z,2.57
2023-06-10T06:56:58.201Z,2.33
2023-06-10T06:59:26.722Z,2.35
2023-06-10T07:01:55.830Z,2.60
2023-06-10T07:04:23.994Z,2.42
2023-06-10T07:06:51.803Z,2.10
2023-06-10T07:09:19.459Z,2.42
2023-06-10T07:11:47.343Z,2.40
2023-06-10T07:14:14.854Z,2.33
2023-06-10T07:16:42.427Z,2.37
2023-06-10T07:19:10.247Z,2.43
2023-06-10T07:21:38.906Z,2.60
2023-06-10T07:24:06.934Z,2.45
2023-06-10T07:26:35.064Z,2.60
2023-06-10T07:29:02.726Z,2.30
2023-06-10T07:31:30.475Z,2.20
2023-06-10T07:33:58.293Z,2.33
2023-06-10T07:36:28.402Z,2.50
2023-06-10T07:38:56.420Z,2.30
2023-06-10T07:41:26.301Z,2.47
2023-06-10T07:43:55.712Z,2.47
2023-06-10T07:46:24.287Z,2.90
2023-06-10T07:48:53.041Z,2.33
2023-06-10T07:51:20.614Z,2.25
2023-06-10T07:53:48.170Z,2.53
2023-06-10T07:56:16.030Z,2.47
2023-06-10T07:58:43.536Z,2.67
2023-06-10T08:01:11.099Z,2.70
2023-06-10T08:03:38.915Z,3.17
2023-06-10T08:06:06.886Z,2.45
2023-06-10T08:08:35.769Z,2.90
2023-06-10T08:11:03.610Z,2.72
2023-06-10T08:13:31.173Z,3.00
2023-06-10T08:15:58.686Z,3.17
2023-06-10T08:18:26.754Z,2.60
2023-06-10T08:20:54.281Z,2.87
2023-06-10T08:23:21.905Z,2.62
2023-06-10T08:25:49.965Z,2.53
2023-06-10T08:28:17.435Z,2.30
2023-06-10T08:30:45.302Z,2.45
2023-06-10T08:33:13.189Z,2.77
2023-06-10T08:35:40.869Z,2.42
2023-06-10T08:38:08.470Z,2.40
2023-06-10T08:40:36.768Z,2.80
2023-06-10T08:43:09.020Z,2.85
2023-06-10T08:45:37.990Z,2.60
2023-06-10T08:48:07.728Z,2.85
2023-06-10T08:50:40.056Z,2.70
2023-06-10T08:53:08.377Z,2.10
2023-06-10T08:55:39.517Z,2.80
2023-06-10T08:58:07.223Z,2.63
2023-06-10T09:00:37.022Z,3.30
2023-06-10T09:03:05.935Z,2.72
2023-06-10T09:05:37.704Z,2.45
2023-06-10T09:08:08.093Z,3.00
2023-06-10T09:10:35.849Z,2.40
2023-06-10T09:13:03.496Z,2.42
2023-06-10T09:15:31.498Z,2.45
2023-06-10T09:18:00.688Z,2.50
2023-06-10T09:20:28.188Z,2.00
2023-06-10T09:22:56.023Z,2.27
2023-06-10T09:25:37.115Z,2.60
2023-06-10T09:28:05.958Z,2.20
2023-06-10T09:30:34.748Z,2.37
2023-06-10T09:33:04.241Z,2.05
2023-06-10T09:35:33.115Z,1.77
2023-06-10T09:38:01.756Z,1.90
2023-06-10T09:40:29.361Z,1.83
2023-06-10T09:43:01.332Z,2.17
2023-06-10T09:45:32.982Z,1.92
2023-06-10T09:48:01.716Z,2.00
2023-06-10T09:50:29.472Z,2.40
2023-06-10T09:52:57.292Z,2.12
2023-06-10T09:55:25.243Z,2.35
2023-06-10T09:57:55.190Z,2.33
2023-06-10T10:00:23.831Z,2.03
2023-06-10T10:02:53.561Z,1.80
2023-06-10T10:05:22.717Z,1.77
2023-06-10T10:07:50.597Z,2.00
2023-06-10T10:10:20.508Z,2.05
2023-06-10T10:12:49.273Z,1.67
2023-06-10T10:15:18.699Z,2.03
2023-06-10T10:17:49.658Z,1.67
2023-06-10T10:20:20.233Z,2.40
2023-06-10T10:22:48.880Z,2.53
2023-06-10T10:25:24.525Z,2.10
2023-06-10T10:27:54.735Z,2.35
2023-06-10T10:30:23.336Z,2.20
2023-06-10T10:33:08.506Z,2.55
2023-06-10T10:35:38.860Z,2.25
2023-06-10T10:38:07.560Z,2.43
2023-06-10T10:40:35.382Z,2.30
2023-06-10T10:43:03.777Z,2.47
2023-06-10T10:45:31.275Z,1.95
2023-06-10T10:47:59.062Z,2.10
2023-06-10T10:50:31.866Z,2.87
2023-06-10T10:53:04.081Z,2.55
2023-06-10T10:55:32.230Z,2.35
2023-06-10T10:58:04.464Z,2.37
2023-06-10T11:00:46.134Z,2.40
2023-06-10T11:03:15.929Z,2.43
2023-06-10T11:05:49.051Z,2.70
2023-06-10T11:08:31.850Z,2.67
2023-06-10T11:11:00.541Z,3.62
2023-06-10T11:13:28.654Z,3.47
2023-06-10T11:16:00.080Z,3.10
2023-06-10T11:18:34.154Z,3.30
2023-06-10T11:21:04.044Z,3.25
2023-06-10T11:23:33.562Z,3.00
2023-06-10T11:26:12.012Z,3.25
2023-06-10T11:28:40.619Z,3.40
2023-06-10T11:31:08.564Z,3.17
2023-06-10T11:33:39.904Z,3.40
2023-06-10T11:36:08.978Z,7.40
2023-06-10T11:38:36.894Z,10.73
2023-06-10T11:41:04.585Z,4.00
2023-06-10T11:43:32.576Z,3.05
2023-06-10T11:46:00.995Z,3.15
2023-06-10T11:48:31.490Z,2.40
2023-06-10T11:50:59.383Z,2.67
2023-06-10T11:53:27.066Z,3.70
2023-06-10T11:55:55.287Z,3.58
2023-06-10T11:58:23.681Z,5.68
2023-06-10T12:00:54.327Z,4.57
2023-06-10T12:03:24.943Z,4.13
2023-06-10T12:06:02.942Z,2.87
2023-06-10T12:08:31.190Z,2.80
2023-06-10T12:10:59.272Z,2.65
2023-06-10T12:13:30.058Z,2.90
2023-06-10T12:16:08.693Z,2.97
2023-06-10T12:18:36.659Z,2.25
2023-06-10T12:21:04.805Z,2.95
2023-06-10T12:23:33.222Z,2.05
2023-06-10T12:26:01.011Z,2.17
2023-06-10T12:28:28.909Z,2.70
2023-06-10T12:31:09.087Z,1.98
2023-06-10T12:33:36.960Z,1.98
2023-06-10T12:36:05.248Z,2.17
2023-06-10T12:38:32.798Z,2.58
2023-06-10T12:41:05.104Z,2.30
2023-06-10T12:43:33.647Z,2.33
2023-06-10T12:46:11.470Z,2.62
2023-06-10T12:48:50.604Z,2.15
2023-06-10T12:51:18.440Z,2.45
2023-06-10T12:53:46.221Z,2.83
2023-06-10T12:56:13.848Z,2.80
2023-06-10T12:58:41.596Z,3.20
2023-06-10T13:01:09.905Z,2.95
2023-06-10T13:03:39.430Z,3.05
2023-06-10T13:06:08.108Z,4.83
2023-06-10T13:08:35.637Z,4.90
2023-06-10T13:11:03.155Z,4.05
2023-06-10T13:13:30.972Z,3.55
2023-06-10T13:15:58.420Z,3.47
2023-06-10T13:18:27.048Z,2.73
2023-06-10T13:20:54.822Z,2.67
2023-06-10T13:23:22.915Z,2.62
2023-06-10T13:25:50.441Z,2.50
2023-06-10T13:28:18.284Z,2.78
2023-06-10T13:30:46.087Z,2.10
2023-06-10T13:33:13.747Z,1.83
2023-06-10T13:35:42.463Z,2.10
2023-06-10T13:38:10.023Z,2.20
2023-06-10T13:40:37.534Z,2.00
2023-06-10T13:43:07.505Z,1.47
2023-06-10T13:45:35.325Z,1.50
2023-06-10T13:48:05.321Z,1.98
2023-06-10T13:50:33.354Z,1.65
2023-06-10T13:53:04.322Z,1.80
2023-06-10T13:55:32.168Z,1.40
2023-06-10T13:58:00.567Z,1.70
2023-06-10T14:00:29.396Z,1.62
2023-06-10T14:02:57.664Z,1.30
2023-06-10T14:05:25.311Z,1.67
2023-06-10T14:07:52.812Z,1.60
2023-06-10T14:10:20.595Z,1.60
2023-06-10T14:12:48.010Z,2.00
2023-06-10T14:15:15.750Z,1.62
2023-06-10T14:17:43.588Z,2.12
2023-06-10T14:20:11.757Z,1.50
2023-06-10T14:22:39.273Z,2.10
2023-06-10T14:25:08.012Z,1.90
2023-06-10T14:27:35.969Z,1.98
2023-06-10T14:30:04.674Z,2.15
2023-06-10T14:32:32.868Z,2.00
2023-06-10T14:35:00.511Z,2.10
2023-06-10T14:37:28.028Z,2.70
2023-06-10T14:39:55.901Z,1.95
2023-06-10T14:42:23.537Z,1.70
2023-06-10T14:44:51.834Z,1.80
2023-06-10T14:47:19.720Z,1.90
2023-06-10T14:49:47.297Z,2.10
2023-06-10T14:52:14.789Z,2.15
2023-06-10T14:54:42.583Z,2.08
2023-06-10T14:57:12.620Z,2.00
2023-06-10T14:59:40.063Z,2.17
2023-06-10T15:02:07.935Z,2.25
2023-06-10T15:04:36.101Z,1.80
2023-06-10T15:07:03.799Z,1.90
2023-06-10T15:09:32.932Z,1.90
2023-06-10T15:12:04.986Z,1.95
2023-06-10T15:14:32.960Z,1.60
2023-06-10T15:17:01.430Z,1.62
2023-06-10T15:19:29.073Z,1.92
2023-06-10T15:21:56.823Z,1.77
2023-06-10T15:24:24.564Z,2.00
2023-06-10T15:26:52.100Z,1.73
2023-06-10T15:29:19.922Z,2.00
2023-06-10T15:31:47.430Z,2.40
2023-06-10T15:34:15.010Z,1.80
2023-06-10T15:36:42.822Z,1.90
2023-06-10T15:39:10.400Z,2.20
2023-06-10T15:41:37.894Z,2.17
2023-06-10T15:44:06.026Z,1.80
2023-06-10T15:46:35.455Z,2.10
2023-06-10T15:49:03.957Z,2.03
2023-06-10T15:51:31.904Z,1.95
2023-06-10T15:54:02.213Z,2.15
2023-06-10T15:56:29.772Z,2.20
2023-06-10T15:58:57.550Z,1.90
2023-06-10T16:01:25.186Z,2.05
2023-06-10T16:03:53.230Z,2.42
2023-06-10T16:06:21.003Z,2.00
2023-06-10T16:08:48.646Z,2.30
2023-06-10T16:11:16.560Z,2.47
2023-06-10T16:13:44.149Z,1.83
2023-06-10T16:16:11.728Z,1.83
2023-06-10T16:18:39.579Z,2.40
2023-06-10T16:21:07.331Z,2.28
2023-06-10T16:23:35.057Z,2.20
2023-06-10T16:26:02.869Z,2.25
2023-06-10T16:28:30.332Z,2.05
2023-06-10T16:30:57.994Z,2.10
2023-06-10T16:33:25.955Z,2.00
2023-06-10T16:35:53.456Z,2.43
2023-06-10T16:38:21.249Z,2.42
2023-06-10T16:40:49.242Z,2.15
2023-06-10T16:43:16.743Z,2.20
2023-06-10T16:45:44.313Z,2.67
2023-06-10T16:48:13.997Z,2.13
2023-06-10T16:50:41.593Z,2.22
2023-06-10T16:53:09.158Z,2.65
2023-06-10T16:55:39.537Z,2.10
2023-06-10T16:58:07.155Z,2.55
2023-06-10T17:00:35.011Z,2.20
2023-06-10T17:03:02.923Z,2.05
2023-06-10T17:05:30.538Z,2.20
2023-06-10T17:07:58.148Z,2.35
2023-06-10T17:10:25.929Z,2.20
2023-06-10T17:12:53.458Z,2.23
2023-06-10T17:15:21.021Z,2.30
2023-06-10T17:17:48.919Z,2.20
2023-06-10T17:20:16.484Z,2.30
2023-06-10T17:22:44.033Z,2.35
2023-06-10T17:25:12.253Z,2.10
2023-06-10T17:27:40.048Z,2.20
2023-06-10T17:30:08.208Z,2.40
2023-06-10T17:32:38.220Z,2.00
2023-06-10T17:35:06.323Z,2.40
2023-06-10T17:37:34.098Z,2.10
2023-06-10T17:40:02.138Z,2.40
2023-06-10T17:42:29.803Z,2.45
2023-06-10T17:44:57.285Z,2.08
2023-06-10T17:47:25.288Z,2.17
2023-06-10T17:49:52.893Z,3.10
2023-06-10T17:52:20.384Z,2.58
2023-06-10T17:54:48.171Z,3.17
2023-06-10T17:57:15.790Z,2.33
2023-06-10T17:59:43.605Z,2.80
2023-06-10T18:02:11.502Z,2.27
2023-06-10T18:04:39.552Z,2.37
2023-06-10T18:07:07.174Z,2.87
2023-06-10T18:09:34.636Z,2.50
2023-06-10T18:12:02.471Z,2.92
2023-06-10T18:14:29.966Z,2.53
2023-06-10T18:16:57.542Z,2.35
2023-06-10T18:19:25.312Z,2.50
2023-06-10T18:21:52.797Z,2.60
2023-06-10T18:24:22.213Z,3.08
2023-06-10T18:26:50.558Z,2.50
2023-06-10T18:29:18.155Z,2.70
2023-06-10T18:31:45.848Z,2.90
2023-06-10T18:34:13.665Z,2.65
2023-06-10T18:36:41.285Z,2.50
2023-06-10T18:39:09.174Z,2.77
2023-06-10T18:41:37.044Z,2.83
2023-06-10T18:44:04.601Z,2.75
2023-06-10T18:46:32.245Z,2.53
2023-06-10T18:49:00.207Z,2.58
2023-06-10T18:51:27.769Z,2.10
2023-06-10T18:53:55.345Z,3.17
2023-06-10T18:56:23.172Z,2.45
2023-06-10T18:58:51.014Z,2.85
2023-06-10T19:01:18.691Z,3.03
2023-06-10T19:03:48.074Z,2.73
2023-06-10T19:06:15.797Z,2.45
2023-06-10T19:08:43.284Z,2.70
2023-06-10T19:11:11.179Z,2.53
2023-06-10T19:13:38.798Z,2.67
2023-06-10T19:16:08.224Z,2.97
2023-06-10T19:18:36.326Z,3.17
2023-06-10T19:21:07.724Z,2.60
2023-06-10T19:23:37.353Z,2.90
2023-06-10T19:26:05.039Z,3.30
2023-06-10T19:28:32.555Z,3.47
2023-06-10T19:31:00.405Z,3.08
2023-06-10T19:33:27.961Z,3.72
2023-06-10T19:35:56.537Z,3.08
2023-06-10T19:38:24.384Z,3.10
2023-06-10T19:40:52.063Z,2.80
2023-06-10T19:43:19.624Z,2.75
2023-06-10T19:45:47.426Z,2.87
2023-06-10T19:48:15.382Z,2.80
2023-06-10T19:50:42.914Z,3.30
2023-06-10T19:53:10.688Z,2.80
2023-06-10T19:55:38.916Z,2.75
2023-06-10T19:58:06.504Z,2.45
2023-06-10T20:00:34.511Z,3.30
2023-06-10T20:03:03.328Z,3.00
2023-06-10T20:05:31.481Z,2.77
2023-06-10T20:07:59.586Z,2.78
2023-06-10T20:10:27.625Z,2.75
2023-06-10T20:12:55.127Z,2.80
2023-06-10T20:15:22.739Z,2.97
2023-06-10T20:17:52.849Z,2.90
2023-06-10T20:20:20.514Z,3.12
2023-06-10T20:22:48.035Z,3.03
2023-06-10T20:25:17.204Z,2.75
2023-06-10T20:27:44.805Z,3.25
2023-06-10T20:30:13.775Z,3.23
2023-06-10T20:32:41.625Z,3.15
2023-06-10T20:35:09.906Z,2.97
2023-06-10T20:37:37.691Z,3.08
2023-06-10T20:40:06.502Z,3.42
2023-06-10T20:42:34.317Z,3.47
2023-06-10T20:45:02.017Z,3.70
2023-06-10T20:47:29.967Z,3.60
2023-06-10T20:49:57.459Z,3.80
2023-06-10T20:52:25.097Z,3.80
2023-06-10T20:54:52.877Z,3.90
2023-06-10T20:57:20.469Z,3.55
2023-06-10T20:59:47.966Z,3.65
2023-06-10T21:02:15.947Z,3.37
2023-06-10T21:04:43.621Z,3.70
2023-06-10T21:07:12.212Z,3.07
2023-06-10T21:09:40.122Z,3.95
2023-06-10T21:12:08.010Z,3.67
2023-06-10T21:14:35.667Z,3.70
2023-06-10T21:17:03.637Z,3.37
2023-06-10T21:19:31.139Z,3.57
2023-06-10T21:21:58.718Z,3.70
2023-06-10T21:24:26.561Z,3.62
2023-06-10T21:26:54.815Z,3.78
2023-06-10T21:29:23.882Z,3.53
2023-06-10T21:31:52.319Z,3.60
2023-06-10T21:34:19.888Z,3.92
2023-06-10T21:36:47.352Z,3.90
2023-06-10T21:39:15.688Z,3.83
2023-06-10T21:41:43.168Z,4.18
2023-06-10T21:44:10.836Z,3.70
2023-06-10T21:46:38.873Z,3.95
2023-06-10T21:49:06.500Z,4.45
2023-06-10T21:51:34.039Z,3.78
2023-06-10T21:54:01.862Z,3.55
2023-06-10T21:56:32.705Z,3.83
2023-06-10T21:59:01.063Z,3.97
2023-06-10T22:01:29.085Z,4.18
2023-06-10T22:03:57.094Z,3.80
2023-06-10T22:06:24.855Z,4.15
2023-06-10T22:08:52.388Z,4.17
2023-06-10T22:11:21.327Z,4.10
2023-06-10T22:13:49.366Z,4.47
2023-06-10T22:16:17.008Z,4.37
2023-06-10T22:18:44.963Z,4.32
2023-06-10T22:21:12.521Z,4.83
2023-06-10T22:23:40.116Z,4.57
2023-06-10T22:26:07.969Z,4.03
2023-06-10T22:28:36.030Z,4.57
2023-06-10T22:31:03.572Z,4.72
2023-06-10T22:33:31.461Z,4.80
2023-06-10T22:35:59.020Z,4.50
2023-06-10T22:38:26.556Z,4.80
2023-06-10T22:40:54.409Z,4.75
2023-06-10T22:43:21.913Z,4.72
2023-06-10T22:45:49.477Z,4.50
2023-06-10T22:48:17.407Z,4.90
2023-06-10T22:50:44.966Z,4.97
2023-06-10T22:53:12.485Z,5.20
2023-06-10T22:55:40.453Z,4.65
2023-06-10T22:58:07.987Z,4.80
2023-06-10T23:00:35.498Z,5.05
2023-06-10T23:03:03.528Z,5.35
2023-06-10T23:05:31.108Z,5.15
2023-06-10T23:07:58.661Z,5.37
2023-06-10T23:10:26.465Z,5.70
2023-06-10T23:12:54.023Z,5.00
2023-06-10T23:15:21.595Z,5.82
2023-06-10T23:17:49.650Z,5.95
2023-06-10T23:20:21.003Z,5.53
2023-06-10T23:22:52.913Z,6.20
2023-06-10T23:25:21.911Z,6.00
2023-06-10T23:27:50.155Z,5.28
2023-06-10T23:30:17.913Z,5.93
2023-06-10T23:32:45.666Z,5.80
2023-06-10T23:35:20.001Z,6.50
2023-06-10T23:37:48.067Z,6.30
2023-06-10T23:40:16.254Z,6.30
2023-06-10T23:42:43.730Z,6.10
2023-06-10T23:45:12.233Z,6.03
2023-06-10T23:47:40.777Z,6.10
2023-06-10T23:50:08.924Z,6.43
2023-06-10T23:52:36.763Z,6.60
2023-06-10T23:55:05.110Z,6.30
2023-06-10T23:57:32.601Z,6.22
